Time;durP1;ratioP1;P1;durP2;ratioP2;P2;SDS_P1;SDS_P2;PMS_P1;PMS_P2;Temp;Humidity;BMP_temperature;BMP_pressure;BME280_temperature;BME280_humidity;BME280_pressure;Samples;Min_cycle;Max_cycle;Signal;HPM_P1;HPM_P2
2022/07/15 00:01:38;;;;;;;6.25;2.35;;;13.70;99.90;;;;;;5049459;28;20124;-47
2022/07/15 00:04:04;;;;;;;10.32;2.53;;;13.70;99.90;;;;;;5048302;28;20041;-47
2022/07/15 00:06:30;;;;;;;11.00;3.08;;;13.60;99.90;;;;;;5047997;28;20525;-46
2022/07/15 00:08:55;;;;;;;5.57;2.80;;;13.60;99.90;;;;;;5041108;28;20049;-47
2022/07/15 00:11:21;;;;;;;9.02;2.95;;;13.60;99.90;;;;;;5049364;28;20056;-47
2022/07/15 00:13:46;;;;;;;5.40;3.08;;;13.60;99.90;;;;;;5048658;28;20032;-46
2022/07/15 00:16:13;;;;;;;10.55;2.90;;;13.60;99.90;;;;;;5048462;28;20040;-46
2022/07/15 00:18:40;;;;;;;8.88;2.80;;;13.60;99.90;;;;;;5049346;28;20021;-46
2022/07/15 00:21:05;;;;;;;10.25;2.60;;;13.60;99.90;;;;;;5049052;28;20110;-46
2022/07/15 00:23:31;;;;;;;12.75;3.28;;;13.50;99.90;;;;;;5048679;28;20310;-47
2022/07/15 00:25:56;;;;;;;9.20;2.83;;;13.60;99.90;;;;;;5048223;28;20110;-45
2022/07/15 00:28:22;;;;;;;6.65;2.72;;;13.50;99.90;;;;;;5048845;28;20589;-46
2022/07/15 00:30:48;;;;;;;11.30;3.03;;;13.60;99.90;;;;;;5049124;28;20029;-46
2022/07/15 00:33:13;;;;;;;11.35;3.50;;;13.60;99.90;;;;;;5048773;28;20037;-48
2022/07/15 00:35:39;;;;;;;6.65;2.83;;;13.50;99.90;;;;;;5047383;28;20028;-46
2022/07/15 00:38:07;;;;;;;5.30;2.72;;;13.50;99.90;;;;;;5040247;28;20044;-46
2022/07/15 00:40:40;;;;;;;6.70;2.80;;;13.50;99.90;;;;;;5048808;28;20497;-47
2022/07/15 00:43:05;;;;;;;7.35;2.60;;;13.50;99.90;;;;;;5048678;28;20043;-50
2022/07/15 00:45:31;;;;;;;12.88;3.50;;;13.50;99.90;;;;;;5047937;28;20406;-46
2022/07/15 00:47:57;;;;;;;8.27;2.90;;;13.50;99.90;;;;;;5048535;28;20025;-46
2022/07/15 00:50:26;;;;;;;7.55;2.63;;;13.40;99.90;;;;;;5048573;28;20108;-46
2022/07/15 00:52:57;;;;;;;6.40;2.60;;;13.40;99.90;;;;;;5048316;28;20021;-46
2022/07/15 00:55:24;;;;;;;12.13;2.50;;;13.30;99.90;;;;;;5047940;28;20112;-46
2022/07/15 00:57:54;;;;;;;8.88;2.30;;;13.30;99.90;;;;;;5048450;28;20100;-47
2022/07/15 01:00:21;;;;;;;7.97;2.20;;;13.30;99.90;;;;;;5048432;28;20075;-48
2022/07/15 01:02:50;;;;;;;6.85;2.67;;;13.30;99.90;;;;;;5048670;28;20044;-47
2022/07/15 01:05:18;;;;;;;8.85;2.80;;;13.30;99.90;;;;;;5047416;28;20140;-47
2022/07/15 01:07:44;;;;;;;5.85;2.50;;;13.40;99.90;;;;;;5038916;28;20561;-46
2022/07/15 01:10:10;;;;;;;7.78;2.67;;;13.30;99.90;;;;;;5048452;28;20078;-47
2022/07/15 01:12:43;;;;;;;7.05;2.88;;;13.20;99.90;;;;;;5048630;28;20025;-49
2022/07/15 01:15:10;;;;;;;6.95;2.33;;;13.20;99.90;;;;;;5047791;28;20037;-46
2022/07/15 01:17:36;;;;;;;6.85;2.85;;;13.20;99.90;;;;;;5052428;28;20074;-48
2022/07/15 01:20:02;;;;;;;8.98;3.10;;;13.10;99.90;;;;;;5052570;28;20492;-47
2022/07/15 01:22:27;;;;;;;6.35;2.83;;;13.10;99.90;;;;;;5052473;28;20024;-49
2022/07/15 01:24:53;;;;;;;6.15;2.78;;;13.10;99.90;;;;;;5051773;28;20048;-48
2022/07/15 01:27:19;;;;;;;7.35;3.15;;;13.10;99.90;;;;;;5052472;28;20029;-47
2022/07/15 01:29:44;;;;;;;8.68;2.88;;;13.10;99.90;;;;;;5052277;28;20025;-46
2022/07/15 01:32:11;;;;;;;8.52;2.95;;;13.00;99.90;;;;;;5052182;28;20025;-48
2022/07/15 01:34:36;;;;;;;7.80;2.72;;;13.10;99.90;;;;;;5052080;28;20033;-47
2022/07/15 01:37:02;;;;;;;6.45;3.38;;;13.10;99.90;;;;;;5048381;28;20025;-46
2022/07/15 01:39:27;;;;;;;7.97;2.97;;;13.10;99.90;;;;;;5043705;28;20032;-46
2022/07/15 01:41:53;;;;;;;5.43;3.00;;;13.10;99.90;;;;;;5052082;28;20036;-49
2022/07/15 01:44:18;;;;;;;5.90;2.55;;;13.00;99.90;;;;;;5051396;28;20029;-46
2022/07/15 01:46:44;;;;;;;8.20;2.97;;;13.10;99.90;;;;;;5051840;28;20057;-48
2022/07/15 01:49:22;;;;;;;7.78;2.67;;;13.10;99.90;;;;;;5051929;28;20394;-47
2022/07/15 01:51:55;;;;;;;6.75;2.97;;;13.10;99.90;;;;;;5050197;28;20044;-46
2022/07/15 01:54:25;;;;;;;7.95;3.30;;;13.10;99.90;;;;;;5051127;28;20051;-47
2022/07/15 01:56:52;;;;;;;10.23;3.28;;;13.10;99.90;;;;;;5051871;28;20401;-47
2022/07/15 01:59:19;;;;;;;11.57;3.28;;;13.10;99.90;;;;;;5051616;28;20029;-46
2022/07/15 02:01:44;;;;;;;6.10;3.17;;;13.10;99.90;;;;;;5051690;28;20371;-46
2022/07/15 02:04:12;;;;;;;12.50;3.00;;;13.20;99.90;;;;;;5050937;28;20067;-46
2022/07/15 02:06:39;;;;;;;10.23;2.67;;;13.20;99.90;;;;;;5049642;28;20034;-47
2022/07/15 02:09:04;;;;;;;11.30;2.92;;;13.20;99.90;;;;;;5043031;28;20486;-46
2022/07/15 02:11:30;;;;;;;11.25;3.10;;;13.20;99.90;;;;;;5051354;28;20027;-47
2022/07/15 02:13:58;;;;;;;8.88;2.72;;;13.20;99.90;;;;;;5051005;28;20242;-49
2022/07/15 02:16:25;;;;;;;14.70;3.15;;;13.10;99.90;;;;;;5050946;28;20031;-45
2022/07/15 02:18:51;;;;;;;4.63;2.42;;;13.10;99.90;;;;;;5051096;28;20379;-46
2022/07/15 02:21:17;;;;;;;5.93;2.83;;;13.10;99.90;;;;;;5051362;28;20147;-46
2022/07/15 02:23:42;;;;;;;11.70;3.03;;;13.10;99.90;;;;;;5051034;28;20041;-46
2022/07/15 02:26:08;;;;;;;19.40;3.20;;;13.10;99.90;;;;;;5048997;28;20078;-46
2022/07/15 02:28:34;;;;;;;12.80;2.67;;;13.10;99.90;;;;;;5050856;28;20029;-48
2022/07/15 02:30:59;;;;;;;11.65;3.28;;;13.10;99.90;;;;;;5049786;28;20032;-47
2022/07/15 02:33:25;;;;;;;10.63;3.13;;;13.10;99.90;;;;;;5050972;28;20047;-46
2022/07/15 02:35:50;;;;;;;6.07;2.67;;;13.10;99.90;;;;;;5050414;28;20555;-47
2022/07/15 02:38:17;;;;;;;8.48;2.50;;;13.10;99.90;;;;;;5042609;28;20608;-46
2022/07/15 02:40:43;;;;;;;13.30;3.08;;;13.10;99.90;;;;;;5049466;28;20029;-47
2022/07/15 02:43:09;;;;;;;7.50;3.45;;;13.10;99.90;;;;;;5033952;28;20032;-46
2022/07/15 02:45:36;;;;;;;7.57;2.83;;;13.00;99.90;;;;;;5016316;28;20034;-49
2022/07/15 02:48:02;;;;;;;6.80;2.55;;;13.00;99.90;;;;;;5018382;28;20058;-48
2022/07/15 02:50:28;;;;;;;8.38;2.75;;;12.90;99.90;;;;;;5018613;28;20029;-46
2022/07/15 02:52:54;;;;;;;8.43;3.00;;;12.90;99.90;;;;;;5021184;28;20018;-46
2022/07/15 02:55:19;;;;;;;7.78;3.47;;;12.80;99.90;;;;;;5019207;28;20030;-46
2022/07/15 02:57:45;;;;;;;7.95;2.78;;;12.70;99.90;;;;;;5020965;28;20513;-46
2022/07/15 03:00:14;;;;;;;8.70;2.97;;;12.70;99.90;;;;;;5020885;28;20080;-46
2022/07/15 03:02:40;;;;;;;9.25;3.40;;;12.60;99.90;;;;;;5019567;28;20060;-46
2022/07/15 03:05:07;;;;;;;7.97;2.78;;;12.60;99.90;;;;;;5019656;28;20380;-47
2022/07/15 03:07:32;;;;;;;9.10;3.22;;;12.60;99.90;;;;;;5024656;28;20021;-48
2022/07/15 03:09:58;;;;;;;9.90;3.40;;;12.60;99.90;;;;;;5032228;28;20153;-46
2022/07/15 03:12:24;;;;;;;14.63;3.00;;;12.60;99.90;;;;;;5019842;28;20021;-46
2022/07/15 03:14:49;;;;;;;8.07;2.80;;;12.60;99.90;;;;;;5020351;28;20379;-47
2022/07/15 03:17:15;;;;;;;11.55;2.88;;;12.60;99.90;;;;;;5027676;28;20049;-46
2022/07/15 03:19:41;;;;;;;11.27;2.63;;;12.60;99.90;;;;;;5030369;28;20029;-46
2022/07/15 03:22:07;;;;;;;10.00;2.53;;;12.60;99.90;;;;;;5030233;28;20702;-46
2022/07/15 03:24:32;;;;;;;11.32;2.85;;;12.50;99.90;;;;;;5029624;28;20116;-47
2022/07/15 03:26:58;;;;;;;10.13;3.10;;;12.50;99.90;;;;;;5030002;28;20017;-47
2022/07/15 03:29:24;;;;;;;10.88;2.72;;;12.50;99.90;;;;;;5030138;28;20037;-46
2022/07/15 03:31:50;;;;;;;14.93;3.00;;;12.50;99.90;;;;;;5030058;28;20053;-46
2022/07/15 03:34:15;;;;;;;10.90;2.70;;;12.50;99.90;;;;;;5028410;28;20064;-46
2022/07/15 03:36:40;;;;;;;15.52;3.63;;;12.50;99.90;;;;;;5031144;28;20413;-46
2022/07/15 03:39:07;;;;;;;8.93;2.70;;;12.50;99.90;;;;;;5040467;28;20116;-45
2022/07/15 03:41:34;;;;;;;8.38;2.85;;;12.50;99.90;;;;;;5049765;28;20024;-45
2022/07/15 03:44:01;;;;;;;17.50;4.60;;;12.50;99.90;;;;;;5049462;28;20474;-46
2022/07/15 03:46:27;;;;;;;7.20;2.92;;;12.60;99.90;;;;;;5049604;28;20032;-46
2022/07/15 03:48:53;;;;;;;9.10;2.65;;;12.50;99.90;;;;;;5049753;28;20076;-46
2022/07/15 03:51:19;;;;;;;11.25;2.90;;;12.60;99.90;;;;;;5049785;28;20139;-46
2022/07/15 03:53:45;;;;;;;7.90;2.70;;;12.50;99.90;;;;;;5049278;28;20120;-47
2022/07/15 03:56:11;;;;;;;13.57;2.75;;;12.50;99.90;;;;;;5049043;28;20021;-46
2022/07/15 03:58:36;;;;;;;11.45;3.13;;;12.60;99.90;;;;;;5049869;28;20036;-47
2022/07/15 04:01:02;;;;;;;9.40;2.78;;;12.60;99.90;;;;;;5040006;28;20032;-48
2022/07/15 04:03:27;;;;;;;10.02;2.63;;;12.60;99.90;;;;;;5026899;28;20047;-45
2022/07/15 04:05:53;;;;;;;8.80;2.53;;;12.60;99.90;;;;;;5026136;28;20021;-46
2022/07/15 04:08:18;;;;;;;7.90;3.20;;;12.60;99.90;;;;;;5037159;28;20014;-45
2022/07/15 04:10:44;;;;;;;14.30;2.92;;;12.60;99.90;;;;;;5024410;28;20044;-45
2022/07/15 04:13:09;;;;;;;11.50;2.47;;;12.60;99.90;;;;;;5009439;28;20415;-45
2022/07/15 04:15:35;;;;;;;13.68;2.60;;;12.70;99.90;;;;;;5008842;28;20049;-46
2022/07/15 04:18:01;;;;;;;18.70;3.10;;;12.70;99.90;;;;;;5009740;28;20022;-45
2022/07/15 04:20:27;;;;;;;13.68;2.65;;;12.70;99.90;;;;;;5037550;28;20025;-45
2022/07/15 04:22:53;;;;;;;12.70;2.95;;;12.70;99.90;;;;;;5025172;28;20068;-45
2022/07/15 04:25:20;;;;;;;10.65;2.97;;;12.70;99.90;;;;;;5017561;28;20033;-46
2022/07/15 04:27:48;;;;;;;15.05;2.60;;;12.80;99.90;;;;;;5021520;28;20038;-46
2022/07/15 04:30:14;;;;;;;8.52;2.45;;;12.80;99.90;;;;;;5018193;28;20540;-47
2022/07/15 04:32:41;;;;;;;9.82;2.22;;;12.80;99.90;;;;;;5009332;28;20109;-46
2022/07/15 04:35:07;;;;;;;9.65;2.38;;;12.90;99.90;;;;;;5008407;28;20076;-46
2022/07/15 04:37:33;;;;;;;8.43;2.53;;;13.00;99.90;;;;;;5033982;28;20021;-47
2022/07/15 04:39:58;;;;;;;10.57;2.58;;;13.00;99.90;;;;;;5028896;28;20033;-46
2022/07/15 04:42:24;;;;;;;10.80;2.80;;;13.00;99.90;;;;;;5026554;28;20095;-46
2022/07/15 04:44:50;;;;;;;10.23;2.83;;;13.10;99.90;;;;;;5028394;28;20037;-46
2022/07/15 04:47:16;;;;;;;8.40;2.38;;;13.30;99.90;;;;;;5028674;28;20041;-46
2022/07/15 04:52:26;;;;;;;9.10;2.28;;;13.50;99.90;;;;;;5029563;28;20082;-47
2022/07/15 04:54:53;;;;;;;15.15;3.05;;;13.70;99.90;;;;;;5044797;28;20414;-46
2022/07/15 04:57:19;;;;;;;12.20;2.72;;;13.80;99.90;;;;;;5033382;28;20359;-45
2022/07/15 04:59:44;;;;;;;8.90;2.38;;;13.90;99.90;;;;;;5035655;28;20263;-45
2022/07/15 05:02:10;;;;;;;9.82;2.05;;;14.10;99.90;;;;;;5023120;28;20057;-45
2022/07/15 05:04:35;;;;;;;16.40;2.50;;;14.10;99.90;;;;;;5013286;28;20034;-46
2022/07/15 05:07:01;;;;;;;10.43;2.35;;;14.20;99.90;;;;;;5041933;28;20383;-45
2022/07/15 05:09:27;;;;;;;6.57;2.17;;;14.20;99.90;;;;;;5042321;28;20017;-45
2022/07/15 05:11:52;;;;;;;6.93;1.88;;;14.30;99.90;;;;;;5037331;28;20033;-47
2022/07/15 05:14:18;;;;;;;11.18;2.20;;;14.40;99.90;;;;;;5030388;28;20037;-45
2022/07/15 05:16:43;;;;;;;14.18;2.38;;;14.50;99.90;;;;;;5028151;28;20498;-45
2022/07/15 05:19:09;;;;;;;7.20;1.98;;;14.40;99.90;;;;;;5028031;28;20025;-45
2022/07/15 05:21:34;;;;;;;10.95;2.40;;;14.50;99.90;;;;;;5037186;28;20357;-46
2022/07/15 05:24:00;;;;;;;12.80;2.65;;;14.50;99.90;;;;;;5047484;28;20029;-45
2022/07/15 05:26:25;;;;;;;11.93;2.30;;;14.50;99.90;;;;;;5048191;28;20086;-45
2022/07/15 05:28:52;;;;;;;15.23;2.42;;;14.50;99.90;;;;;;5048630;28;20032;-45
2022/07/15 05:31:17;;;;;;;11.88;2.30;;;14.70;99.90;;;;;;5048563;28;20541;-47
2022/07/15 05:33:43;;;;;;;7.78;2.22;;;14.70;99.90;;;;;;5048414;28;20155;-48
2022/07/15 05:36:13;;;;;;;9.40;2.22;;;14.70;99.90;;;;;;5048057;28;20100;-47
2022/07/15 05:38:39;;;;;;;18.27;2.55;;;14.80;99.90;;;;;;5038075;28;20044;-47
2022/07/15 05:41:04;;;;;;;12.93;2.55;;;14.90;99.90;;;;;;5048170;28;20625;-47
2022/07/15 05:43:30;;;;;;;15.02;2.30;;;14.90;99.90;;;;;;5048154;28;20103;-46
2022/07/15 05:45:56;;;;;;;4.72;1.75;;;15.00;99.90;;;;;;5047322;28;20017;-48
2022/07/15 05:48:21;;;;;;;16.33;2.78;;;15.00;99.90;;;;;;5048052;28;20371;-47
2022/07/15 05:50:47;;;;;;;16.50;2.35;;;15.10;99.90;;;;;;5048400;28;20063;-48
2022/07/15 05:53:12;;;;;;;8.02;1.95;;;15.10;99.90;;;;;;5039179;28;20222;-47
2022/07/15 05:55:39;;;;;;;11.57;2.47;;;15.20;99.90;;;;;;5031905;28;20029;-47
2022/07/15 05:58:07;;;;;;;17.25;2.65;;;15.20;99.90;;;;;;5027147;28;20554;-46
2022/07/15 06:00:32;;;;;;;11.95;2.72;;;15.30;99.90;;;;;;5027465;28;20029;-47
2022/07/15 06:02:58;;;;;;;8.85;1.90;;;15.40;99.90;;;;;;5028478;28;20116;-47
2022/07/15 06:05:24;;;;;;;12.23;2.60;;;15.50;99.90;;;;;;5026979;28;20045;-46
2022/07/15 06:07:49;;;;;;;13.18;2.38;;;15.60;99.90;;;;;;5027817;28;20069;-45
2022/07/15 06:10:15;;;;;;;5.97;1.42;;;15.60;99.90;;;;;;5026049;28;20037;-47
2022/07/15 06:12:40;;;;;;;12.38;2.28;;;15.70;99.90;;;;;;5024194;28;20365;-49
2022/07/15 06:15:07;;;;;;;6.70;2.35;;;15.80;99.90;;;;;;5018059;28;20049;-46
2022/07/15 06:17:33;;;;;;;10.15;2.10;;;15.90;99.90;;;;;;5020466;28;20025;-47
2022/07/15 06:19:59;;;;;;;9.52;2.17;;;16.00;99.90;;;;;;5020751;28;20414;-45
2022/07/15 06:22:24;;;;;;;10.63;2.75;;;16.10;99.90;;;;;;5019643;28;20308;-46
2022/07/15 06:24:50;;;;;;;13.75;2.70;;;16.20;99.90;;;;;;5028667;28;20029;-46
2022/07/15 06:27:15;;;;;;;8.10;2.10;;;16.20;99.90;;;;;;5028989;28;20243;-48
2022/07/15 06:29:41;;;;;;;11.32;2.47;;;16.30;99.90;;;;;;5030727;28;20033;-47
2022/07/15 06:32:07;;;;;;;6.43;1.92;;;16.40;99.90;;;;;;5030460;28;20032;-48
2022/07/15 06:34:33;;;;;;;8.30;2.45;;;16.50;99.90;;;;;;5029800;28;20037;-47
2022/07/15 06:36:59;;;;;;;13.40;2.60;;;16.60;99.90;;;;;;5034018;28;20498;-47
2022/07/15 06:39:24;;;;;;;7.72;2.30;;;16.60;99.90;;;;;;5038349;28;20029;-46
2022/07/15 06:41:50;;;;;;;8.18;2.28;;;16.60;99.90;;;;;;5048783;28;20029;-47
2022/07/15 06:44:16;;;;;;;10.02;2.35;;;16.60;99.90;;;;;;5047271;28;20025;-48
2022/07/15 06:46:42;;;;;;;8.95;2.78;;;16.70;99.90;;;;;;5048741;28;20100;-46
2022/07/15 06:49:08;;;;;;;11.13;2.42;;;16.70;99.90;;;;;;5048743;28;20166;-46
2022/07/15 06:51:33;;;;;;;6.95;1.92;;;16.90;99.90;;;;;;5040901;28;20104;-46
2022/07/15 06:53:59;;;;;;;8.25;1.88;;;17.00;99.90;;;;;;5023361;28;20256;-48
2022/07/15 06:56:24;;;;;;;7.95;1.98;;;17.00;99.90;;;;;;5022823;28;20035;-50
2022/07/15 06:58:50;;;;;;;10.35;2.25;;;17.00;99.90;;;;;;5025936;28;20056;-47
2022/07/15 07:01:16;;;;;;;9.02;2.33;;;17.10;99.90;;;;;;5023036;28;20028;-47
2022/07/15 07:03:41;;;;;;;6.70;1.83;;;17.10;99.90;;;;;;5019303;28;20037;-46
2022/07/15 07:06:08;;;;;;;7.03;1.65;;;17.10;99.90;;;;;;5018202;28;20018;-46
2022/07/15 07:08:33;;;;;;;5.00;1.60;;;17.20;99.60;;;;;;5032532;28;20022;-46
2022/07/15 07:10:59;;;;;;;12.68;2.10;;;17.40;99.00;;;;;;5024633;28;20019;-47
2022/07/15 07:13:24;;;;;;;7.22;1.55;;;17.50;99.00;;;;;;5019178;28;20026;-46
2022/07/15 07:15:50;;;;;;;7.70;1.77;;;17.40;98.20;;;;;;5018268;28;20243;-46
2022/07/15 07:18:15;;;;;;;10.00;2.17;;;17.20;98.90;;;;;;5020565;28;20390;-47
2022/07/15 07:20:43;;;;;;;7.95;2.17;;;17.40;98.80;;;;;;5021467;28;20075;-46
2022/07/15 07:23:09;;;;;;;4.85;1.83;;;17.50;98.20;;;;;;5029228;28;20049;-46
2022/07/15 07:25:35;;;;;;;8.02;1.80;;;17.60;98.30;;;;;;5028061;28;20025;-46
2022/07/15 07:28:03;;;;;;;7.45;1.60;;;17.70;98.30;;;;;;5019860;28;20026;-47
2022/07/15 07:30:29;;;;;;;6.93;1.50;;;17.80;98.50;;;;;;5018958;28;20030;-46
2022/07/15 07:32:54;;;;;;;5.57;1.23;;;18.00;98.10;;;;;;5020693;28;20076;-46
2022/07/15 07:35:20;;;;;;;4.35;1.58;;;18.10;97.10;;;;;;5019279;28;20060;-48
2022/07/15 07:37:45;;;;;;;6.03;1.65;;;18.20;97.30;;;;;;5028781;28;20036;-46
2022/07/15 07:40:11;;;;;;;9.50;1.98;;;18.10;96.40;;;;;;5027458;28;20356;-46
2022/07/15 07:42:38;;;;;;;12.38;1.80;;;18.00;96.90;;;;;;5019452;28;20025;-47
2022/07/15 07:45:04;;;;;;;4.88;1.65;;;18.00;96.10;;;;;;5018145;28;20097;-46
2022/07/15 07:47:32;;;;;;;4.88;1.45;;;18.10;96.50;;;;;;5020418;28;20025;-47
2022/07/15 07:49:58;;;;;;;6.32;1.88;;;18.30;96.10;;;;;;5019414;28;20014;-46
2022/07/15 07:52:24;;;;;;;5.88;1.83;;;18.30;95.60;;;;;;5018849;28;20379;-46
2022/07/15 07:54:50;;;;;;;7.07;2.38;;;18.50;94.90;;;;;;5019566;28;20100;-47
2022/07/15 07:57:15;;;;;;;8.77;1.80;;;18.40;94.50;;;;;;5017636;28;20080;-47
2022/07/15 07:59:41;;;;;;;6.03;1.48;;;18.10;94.70;;;;;;5029511;28;20030;-47
2022/07/15 08:02:06;;;;;;;4.72;1.50;;;18.20;95.50;;;;;;5029081;28;20510;-47
2022/07/15 08:04:33;;;;;;;7.10;1.27;;;18.10;93.40;;;;;;5028571;28;20040;-47
2022/07/15 08:06:59;;;;;;;6.22;1.60;;;18.40;93.60;;;;;;5028423;28;20057;-47
2022/07/15 08:09:25;;;;;;;2.38;1.13;;;18.50;92.90;;;;;;5029142;28;20060;-46
2022/07/15 08:11:50;;;;;;;4.05;1.05;;;18.50;90.90;;;;;;5027482;28;20021;-48
2022/07/15 08:14:18;;;;;;;2.53;1.00;;;18.60;90.00;;;;;;5028127;28;20124;-47
2022/07/15 08:16:45;;;;;;;2.38;0.90;;;18.90;88.80;;;;;;5020823;28;20373;-47
2022/07/15 08:19:15;;;;;;;3.47;0.90;;;19.30;88.80;;;;;;5017340;28;20053;-46
2022/07/15 08:21:41;;;;;;;3.92;0.90;;;19.70;83.10;;;;;;5017232;28;20029;-47
2022/07/15 08:24:06;;;;;;;1.58;0.65;;;19.90;81.00;;;;;;5019002;28;20545;-46
2022/07/15 08:26:32;;;;;;;2.58;0.85;;;19.90;79.30;;;;;;5018056;28;20018;-47
2022/07/15 08:28:57;;;;;;;4.57;0.93;;;19.80;80.60;;;;;;5018584;28;20522;-46
2022/07/15 08:31:23;;;;;;;4.65;0.98;;;19.50;81.70;;;;;;5023330;28;20120;-47
2022/07/15 08:33:49;;;;;;;2.83;1.00;;;19.10;83.50;;;;;;5027385;28;20053;-46
2022/07/15 08:36:14;;;;;;;4.38;1.50;;;19.00;85.00;;;;;;5027093;28;20061;-46
2022/07/15 08:38:40;;;;;;;4.18;1.20;;;18.90;84.50;;;;;;5038342;28;20025;-46
2022/07/15 08:41:06;;;;;;;3.30;1.02;;;18.60;86.60;;;;;;5048823;28;20031;-46
2022/07/15 08:43:32;;;;;;;5.97;1.40;;;18.60;87.40;;;;;;5048738;28;20025;-45
2022/07/15 08:45:58;;;;;;;5.55;1.58;;;18.40;89.40;;;;;;5047902;28;20032;-46
2022/07/15 08:48:28;;;;;;;7.78;1.10;;;18.20;90.00;;;;;;5048467;28;20028;-46
2022/07/15 08:50:59;;;;;;;4.93;1.10;;;18.20;90.50;;;;;;5048599;28;20021;-46
2022/07/15 08:53:27;;;;;;;2.63;1.00;;;18.40;89.70;;;;;;5039799;28;20557;-46
2022/07/15 08:55:52;;;;;;;5.95;1.10;;;18.80;88.50;;;;;;5017143;28;20196;-48
2022/07/15 08:58:18;;;;;;;5.38;1.05;;;19.30;87.60;;;;;;5018202;28;20025;-47
2022/07/15 09:00:43;;;;;;;3.42;1.73;;;19.80;85.20;;;;;;5017812;28;20501;-44
2022/07/15 09:03:09;;;;;;;5.22;1.13;;;20.00;85.10;;;;;;5019604;28;20033;-45
2022/07/15 09:05:36;;;;;;;5.43;1.10;;;20.50;83.30;;;;;;5016611;28;20049;-45
2022/07/15 09:08:08;;;;;;;6.95;1.35;;;20.50;83.10;;;;;;5027913;28;20021;-46
2022/07/15 09:10:40;;;;;;;5.15;1.63;;;20.30;82.40;;;;;;5025223;28;20028;-47
2022/07/15 09:13:05;;;;;;;7.22;1.33;;;20.10;83.80;;;;;;5013472;28;20061;-47
2022/07/15 09:15:33;;;;;;;3.63;1.02;;;19.90;84.60;;;;;;5007902;28;20030;-46
2022/07/15 09:18:06;;;;;;;6.90;1.42;;;19.60;85.40;;;;;;5008642;28;20022;-49
2022/07/15 09:20:33;;;;;;;8.18;1.27;;;19.10;87.00;;;;;;5011531;28;20040;-45
2022/07/15 09:22:59;;;;;;;5.03;1.35;;;18.90;87.20;;;;;;5027947;28;20025;-46
2022/07/15 09:25:27;;;;;;;4.80;1.35;;;18.70;87.70;;;;;;5027846;28;20451;-46
2022/07/15 09:27:52;;;;;;;5.47;1.40;;;18.50;88.40;;;;;;5028216;28;20100;-45
2022/07/15 09:36:16;;;;;;;4.65;1.05;;;18.50;88.90;;;;;;5022891;28;20039;-46
2022/07/15 09:38:44;;;;;;;3.83;1.08;;;18.60;88.30;;;;;;5026834;28;20574;-45
2022/07/15 09:41:27;;;;;;;3.55;1.08;;;18.80;89.60;;;;;;5030908;28;20429;-46
2022/07/15 09:43:55;;;;;;;5.60;1.55;;;19.20;88.30;;;;;;5032220;28;20025;-46
2022/07/15 09:46:23;;;;;;;3.63;1.15;;;19.30;87.80;;;;;;5041725;28;20048;-47
2022/07/15 09:48:50;;;;;;;3.47;1.25;;;19.10;88.50;;;;;;5028110;28;20025;-46
2022/07/15 09:51:16;;;;;;;2.95;1.20;;;18.90;88.60;;;;;;5024341;28;20052;-46
2022/07/15 09:53:43;;;;;;;4.70;1.30;;;18.70;89.80;;;;;;5021648;28;20034;-46
2022/07/15 09:56:14;;;;;;;2.80;1.52;;;18.60;89.80;;;;;;5019925;28;20411;-46
2022/07/15 09:58:42;;;;;;;6.07;1.75;;;18.40;90.10;;;;;;5019882;28;20092;-46
2022/07/15 10:01:09;;;;;;;6.40;1.30;;;18.40;90.00;;;;;;5019285;28;20330;-46
2022/07/15 10:03:35;;;;;;;3.55;1.23;;;18.20;89.80;;;;;;5030166;28;20556;-49
2022/07/15 10:06:02;;;;;;;3.90;0.93;;;18.10;90.10;;;;;;5026968;28;20029;-47
2022/07/15 10:08:30;;;;;;;6.00;1.00;;;18.10;90.00;;;;;;5028228;28;20025;-45
2022/07/15 10:10:57;;;;;;;2.15;0.95;;;18.00;90.00;;;;;;5029188;28;20467;-47
2022/07/15 10:13:50;;;;;;;2.63;1.00;;;18.10;90.10;;;;;;5030812;28;20108;-46
2022/07/15 10:16:45;;;;;;;8.35;1.35;;;18.30;89.30;;;;;;5028048;28;20250;-45
2022/07/15 10:19:10;;;;;;;2.88;0.90;;;18.50;87.00;;;;;;5024988;28;20017;-45
2022/07/15 10:21:45;;;;;;;3.55;0.90;;;18.70;86.20;;;;;;5028070;28;20442;-46
2022/07/15 10:24:40;;;;;;;3.22;1.00;;;18.90;83.40;;;;;;5027455;28;20041;-45
2022/07/15 10:27:33;;;;;;;3.30;1.63;;;19.10;83.10;;;;;;5024233;28;20055;-46
2022/07/15 10:30:03;;;;;;;2.35;0.88;;;19.40;82.10;;;;;;5028203;28;20056;-48
2022/07/15 10:32:29;;;;;;;;;;;19.80;81.90;;;;;;5031616;28;20067;-47
2022/07/15 10:34:54;;;;;;;4.30;0.80;;;20.50;80.10;;;;;;5030425;28;20350;-48
2022/07/15 10:37:20;;;;;;;3.38;1.27;;;20.90;79.10;;;;;;5030856;28;20036;-47
2022/07/15 10:39:53;;;;;;;2.80;0.90;;;21.90;77.80;;;;;;5030988;28;20541;-47
2022/07/15 10:42:20;;;;;;;3.70;0.98;;;23.00;74.20;;;;;;5031001;28;20105;-47
2022/07/15 10:45:01;;;;;;;2.13;1.05;;;22.80;72.80;;;;;;5038100;28;20033;-46
2022/07/15 10:47:27;;;;;;;3.72;1.00;;;22.70;71.20;;;;;;5046821;28;20112;-46
2022/07/15 10:49:53;;;;;;;3.80;1.63;;;22.10;72.80;;;;;;5026791;28;20116;-47
2022/07/15 10:52:32;;;;;;;3.25;1.10;;;21.20;73.40;;;;;;5020018;28;20013;-46
2022/07/15 10:55:00;;;;;;;5.05;1.30;;;20.60;74.90;;;;;;5020780;28;20017;-46
2022/07/15 10:57:41;;;;;;;5.72;0.93;;;20.30;76.80;;;;;;5021378;28;20021;-45
2022/07/15 11:00:15;;;;;;;;;;;20.20;77.60;;;;;;5011110;28;20387;-46
2022/07/15 11:03:06;;;;;;;4.20;0.95;;;20.50;77.90;;;;;;5016426;28;19909;-45
2022/07/15 11:05:33;;;;;;;3.83;1.02;;;20.80;77.40;;;;;;5023863;28;20033;-46
2022/07/15 11:07:58;;;;;;;3.72;1.00;;;21.00;77.20;;;;;;5020982;28;20164;-46
2022/07/15 11:10:24;;;;;;;1.67;0.70;;;21.10;76.40;;;;;;5019889;28;20207;-47
2022/07/15 11:12:50;;;;;;;2.95;1.33;;;20.90;77.70;;;;;;5026887;28;20069;-46
2022/07/15 11:15:20;;;;;;;2.40;1.00;;;20.80;76.90;;;;;;5028249;28;20402;-46
2022/07/15 11:17:50;;;;;;;2.92;1.13;;;20.50;78.30;;;;;;5022610;28;20138;-45
2022/07/15 11:20:21;;;;;;;5.10;1.52;;;20.20;78.80;;;;;;5019031;28;20032;-45
2022/07/15 11:22:49;;;;;;;6.38;1.63;;;19.80;79.30;;;;;;5021711;28;20026;-46
2022/07/15 11:25:23;;;;;;;2.58;1.25;;;19.50;80.40;;;;;;5026809;28;20287;-47
2022/07/15 11:28:02;;;;;;;4.85;1.10;;;19.30;80.80;;;;;;5019129;28;20065;-45
2022/07/15 11:30:32;;;;;;;9.23;1.20;;;19.20;81.70;;;;;;5014148;28;20018;-45
2022/07/15 11:32:59;;;;;;;2.22;1.00;;;19.20;81.50;;;;;;5019858;28;20022;-46
2022/07/15 11:35:27;;;;;;;3.88;1.00;;;19.50;80.70;;;;;;5029011;28;20032;-46
2022/07/15 11:37:58;;;;;;;8.65;1.25;;;20.00;79.80;;;;;;5021724;28;20106;-45
2022/07/15 11:45:57;;;;;;;1.65;1.00;;;21.70;77.50;;;;;;5036359;28;20064;-47
2022/07/15 11:48:23;;;;;;;3.33;1.58;;;22.00;75.60;;;;;;5029837;28;20064;-46
2022/07/15 11:50:56;;;;;;;3.25;1.10;;;21.80;76.30;;;;;;5030026;28;20091;-50
2022/07/15 11:53:24;;;;;;;3.13;1.13;;;21.60;76.00;;;;;;5029854;28;20091;-46
2022/07/15 11:55:58;;;;;;;2.17;0.95;;;21.50;76.20;;;;;;5029106;28;20033;-46
2022/07/15 11:58:27;;;;;;;2.13;0.80;;;21.50;77.60;;;;;;5029736;28;20483;-48
2022/07/15 12:00:53;;;;;;;1.30;1.05;;;21.40;77.20;;;;;;5028821;28;20021;-47
2022/07/15 12:03:19;;;;;;;4.80;1.20;;;21.60;75.80;;;;;;5029236;28;20037;-45
2022/07/15 12:06:01;;;;;;;2.50;1.00;;;21.80;75.10;;;;;;5027937;28;20030;-49
2022/07/15 12:08:36;;;;;;;5.82;1.25;;;22.00;75.00;;;;;;5029093;28;20014;-48
2022/07/15 12:11:01;;;;;;;3.83;1.05;;;21.80;74.70;;;;;;5018560;28;20041;-45
2022/07/15 12:13:39;;;;;;;1.35;1.10;;;22.00;74.40;;;;;;5023311;28;20030;-48
2022/07/15 12:16:05;;;;;;;2.58;0.70;;;22.30;73.70;;;;;;5025822;28;20548;-46
2022/07/15 12:18:30;;;;;;;2.42;0.73;;;22.50;72.80;;;;;;5028364;28;20024;-45
2022/07/15 12:20:56;;;;;;;3.05;1.20;;;22.30;73.10;;;;;;5028659;28;20032;-46
2022/07/15 12:23:26;;;;;;;3.15;1.17;;;22.30;72.90;;;;;;5027902;28;20067;-46
2022/07/15 12:26:04;;;;;;;3.10;1.10;;;22.10;72.90;;;;;;5027853;28;20453;-46
2022/07/15 12:28:31;;;;;;;2.58;0.60;;;22.10;74.20;;;;;;5028551;28;20022;-45
2022/07/15 12:30:56;;;;;;;2.58;0.75;;;22.40;73.40;;;;;;5026948;28;20248;-45
2022/07/15 12:33:22;;;;;;;4.05;1.05;;;22.70;72.00;;;;;;5028316;28;20506;-46
2022/07/15 12:35:48;;;;;;;3.72;1.00;;;22.80;71.40;;;;;;5027948;28;20040;-45
2022/07/15 12:38:30;;;;;;;0.85;0.60;;;23.50;69.40;;;;;;5027108;28;20031;-46
2022/07/15 12:41:10;;;;;;;2.22;0.80;;;23.50;68.80;;;;;;5028720;28;20033;-46
2022/07/15 12:43:56;;;;;;;3.80;0.93;;;24.20;68.10;;;;;;5029296;28;20375;-46
2022/07/15 12:46:51;;;;;;;4.65;1.20;;;23.90;68.00;;;;;;5039836;28;20020;-48
2022/07/15 12:49:39;;;;;;;1.55;0.60;;;23.40;67.70;;;;;;5048861;28;20267;-45
2022/07/15 12:52:17;;;;;;;3.35;0.70;;;22.80;68.70;;;;;;5048471;28;20090;-45
2022/07/15 12:54:42;;;;;;;1.58;0.68;;;22.50;69.20;;;;;;5025897;28;20026;-48
2022/07/15 12:57:21;;;;;;;4.20;0.60;;;22.30;68.70;;;;;;5008392;28;20040;-46
2022/07/15 13:00:13;;;;;;;4.10;0.60;;;22.60;69.10;;;;;;5008742;28;20030;-48
2022/07/15 13:03:19;;;;;;;2.97;1.08;;;23.10;68.90;;;;;;5008081;28;20049;-46